Time;durP1;ratioP1;P1;durP2;ratioP2;P2;SDS_P1;SDS_P2;PMS_P1;PMS_P2;Temp;Humidity;BMP_temperature;BMP_pressure;BME280_temperature;BME280_humidity;BME280_pressure;Samples;Min_cycle;Max_cycle;Signal;HPM_P1;HPM_P2
2022/09/06 00:01:11;;;;;;;5.57;3.80;;;18.00;99.90;;;-144.05;66.43;125687.94;5014794;28;20022;-88
2022/09/06 00:03:38;;;;;;;4.88;3.78;;;17.90;99.90;;;-144.05;66.50;125687.94;5015901;28;20092;-88
2022/09/06 00:06:15;;;;;;;4.63;3.53;;;17.80;99.90;;;-144.05;66.30;125687.94;5015674;28;20148;-86
2022/09/06 00:08:44;;;;;;;6.40;3.63;;;17.90;99.90;;;-144.05;66.04;125687.94;5031623;28;20036;-86
2022/09/06 00:11:12;;;;;;;7.28;3.72;;;17.90;99.90;;;-144.05;65.82;125687.94;5016136;28;20026;-88
2022/09/06 00:13:39;;;;;;;6.97;3.22;;;17.80;99.90;;;-144.05;65.42;125687.94;5011871;28;20108;-88
2022/09/06 00:16:12;;;;;;;7.85;3.60;;;17.90;99.90;;;-144.05;65.07;125687.94;5011858;28;20029;-88
2022/09/06 00:18:38;;;;;;;6.30;3.50;;;17.80;99.90;;;-144.05;64.74;125687.94;5010690;28;20030;-86
2022/09/06 00:21:31;;;;;;;4.28;2.97;;;17.90;99.90;;;-144.05;61.91;125687.94;4996081;28;20482;-86
2022/09/06 00:23:57;;;;;;;3.35;2.20;;;18.00;99.90;;;-144.05;56.67;125687.94;5011983;28;20088;-86
2022/09/06 00:26:24;;;;;;;3.80;2.75;;;18.40;99.90;;;-144.05;55.48;125687.94;4995697;28;20466;-85
2022/09/06 00:28:50;;;;;;;4.90;2.13;;;18.70;99.90;;;-144.05;54.08;125687.94;5011717;28;20030;-85
2022/09/06 00:31:25;;;;;;;3.72;2.20;;;18.90;99.90;;;-144.05;52.33;125687.94;5010864;28;20141;-87
2022/09/06 00:33:52;;;;;;;;;;;19.20;99.90;;;-144.05;51.38;125687.94;5011618;28;20022;-89
2022/09/06 00:36:19;;;;;;;;;;;19.30;99.90;;;-144.05;50.45;125687.94;5012335;28;20331;-87
2022/09/06 00:38:45;;;;;;;3.80;2.15;;;19.40;99.90;;;-144.05;50.43;125687.94;5011578;28;19914;-86
2022/09/06 00:41:15;;;;;;;3.80;2.55;;;19.50;99.90;;;-144.05;50.16;125687.94;4995502;28;20483;-87
2022/09/06 00:43:43;;;;;;;3.53;2.50;;;19.60;99.90;;;-144.05;49.48;125687.94;5011670;28;20030;-87
2022/09/06 00:46:49;;;;;;;5.30;2.75;;;19.60;99.90;;;-144.05;49.02;125687.94;4995237;28;20045;-88
2022/09/06 00:49:23;;;;;;;4.07;2.25;;;19.80;99.90;;;-144.05;49.02;125687.94;4993449;28;20108;-88
2022/09/06 00:51:57;;;;;;;4.45;2.40;;;19.70;99.90;;;-144.05;48.56;125687.94;4995489;28;20030;-86
2022/09/06 00:54:23;;;;;;;4.63;2.08;;;19.80;99.90;;;-144.05;48.22;125687.94;5010544;28;20030;-88
2022/09/06 00:56:50;;;;;;;4.20;2.15;;;19.80;99.90;;;-144.05;48.53;125687.94;5010897;28;20081;-87
2022/09/06 00:59:17;;;;;;;4.93;2.05;;;19.80;99.90;;;-144.05;48.38;125687.94;5010552;28;20383;-88
2022/09/06 01:01:43;;;;;;;3.45;2.10;;;19.70;99.90;;;-144.05;48.50;125687.94;4995470;28;20030;-86
2022/09/06 01:04:09;;;;;;;5.50;2.70;;;19.70;99.90;;;-144.05;49.63;125687.94;4996027;28;20551;-87
2022/09/06 01:07:17;;;;;;;6.32;2.00;;;19.70;99.90;;;-144.05;50.14;125687.94;5011894;28;20062;-87
2022/09/06 01:10:35;;;;;;;4.53;2.45;;;19.60;99.90;;;-144.05;50.66;125687.94;5011577;28;20041;-87
2022/09/06 01:13:21;;;;;;;3.67;2.10;;;19.50;99.90;;;-144.05;51.27;125687.94;4995222;28;20034;-86
2022/09/06 01:16:18;;;;;;;4.82;2.38;;;19.40;99.90;;;-144.05;51.46;125687.94;5012123;28;20593;-84
2022/09/06 01:19:52;;;;;;;3.30;2.35;;;19.30;99.90;;;-144.05;51.72;125687.94;4995462;28;20046;-90
2022/09/06 01:23:33;;;;;;;10.23;3.25;;;19.20;99.90;;;-144.05;53.39;125687.94;5005511;28;20106;-85
2022/09/06 01:26:38;;;;;;;3.63;2.65;;;19.00;99.90;;;-144.05;54.78;125687.94;5008253;28;20034;-84
2022/09/06 01:29:26;;;;;;;4.10;2.40;;;18.90;99.90;;;-144.05;54.92;125687.94;4993945;28;20073;-85
2022/09/06 01:32:16;;;;;;;4.20;2.40;;;18.70;99.90;;;-144.05;53.09;125687.94;4994962;28;20034;-86
2022/09/06 01:34:56;;;;;;;5.57;2.25;;;18.80;99.90;;;-144.05;52.10;125687.94;4994204;28;20030;-86
2022/09/06 01:37:23;;;;;;;4.43;2.08;;;19.00;99.90;;;-144.05;50.80;125687.94;4995119;28;20026;-89
2022/09/06 01:39:49;;;;;;;2.95;2.28;;;19.20;99.90;;;-144.05;49.23;125687.94;5012294;28;20042;-80
2022/09/06 01:42:26;;;;;;;3.20;2.05;;;19.40;99.90;;;-144.05;47.96;125687.94;5008357;28;20425;-85
2022/09/06 01:45:11;;;;;;;3.33;2.08;;;19.60;99.90;;;-144.05;47.27;125687.94;5009040;28;20022;-88
2022/09/06 01:47:52;;;;;;;6.28;2.28;;;19.80;99.90;;;-144.05;46.59;125687.94;5009408;28;20034;-88
2022/09/06 01:50:56;;;;;;;7.05;2.78;;;19.90;99.90;;;-144.05;46.35;125687.94;4992786;28;20422;-87
2022/09/06 01:53:33;;;;;;;3.95;2.28;;;20.10;99.90;;;-144.05;46.26;125687.94;4993072;28;20042;-85
2022/09/06 01:56:51;;;;;;;3.53;2.20;;;20.10;99.90;;;-144.05;46.11;125687.94;4992594;28;20034;-87
2022/09/06 01:59:41;;;;;;;3.78;2.28;;;20.10;99.90;;;-144.05;45.97;125687.94;4992738;28;20022;-87
2022/09/06 02:02:36;;;;;;;6.63;2.17;;;20.20;99.90;;;-144.05;45.87;125687.94;4992440;28;20394;-87
2022/09/06 02:05:21;;;;;;;7.22;2.45;;;20.30;99.90;;;-144.05;45.85;125687.94;4992347;28;20022;-90
2022/09/06 02:07:57;;;;;;;5.25;1.90;;;20.30;99.90;;;-144.05;45.88;125687.94;4992912;28;20034;-87
2022/09/06 02:11:03;;;;;;;3.53;1.88;;;20.20;99.90;;;-144.05;45.77;125687.94;4992388;28;20396;-86
2022/09/06 02:13:46;;;;;;;5.07;2.20;;;20.30;99.90;;;-144.05;45.52;125687.94;4957254;28;20038;-87
2022/09/06 02:16:22;;;;;;;3.67;2.05;;;20.20;99.90;;;-144.05;45.42;125687.94;5012241;28;20120;-83
2022/09/06 02:19:38;;;;;;;4.38;2.10;;;20.30;99.90;;;-144.05;45.45;125687.94;5028810;28;20088;-85
2022/09/06 02:22:14;;;;;;;4.85;1.83;;;20.30;99.90;;;-144.05;45.32;125687.94;5000569;28;20033;-89
2022/09/06 02:24:46;;;;;;;4.53;2.17;;;20.30;99.90;;;-144.05;45.57;125687.94;5012259;28;20030;-88
2022/09/06 02:27:13;;;;;;;3.92;2.30;;;20.20;99.90;;;-144.05;45.58;125687.94;5011992;28;20068;-88
2022/09/06 02:29:40;;;;;;;4.38;2.17;;;20.20;99.90;;;-144.05;45.47;125687.94;5011790;28;20037;-86
2022/09/06 02:32:19;;;;;;;7.55;2.08;;;20.20;99.90;;;-144.05;45.38;125687.94;5028005;28;20058;-89
2022/09/06 02:34:46;;;;;;;4.40;2.30;;;20.20;99.90;;;-144.05;45.50;125687.94;5012040;28;20040;-86
2022/09/06 02:37:15;;;;;;;6.10;2.00;;;20.20;99.90;;;-144.05;45.70;125687.94;5011407;28;20121;-86
2022/09/06 02:39:42;;;;;;;10.35;2.55;;;20.20;99.90;;;-144.05;45.88;125687.94;5011691;28;20062;-84
2022/09/06 02:42:14;;;;;;;6.05;2.42;;;20.30;99.90;;;-144.05;45.77;125687.94;5010891;28;20023;-87
2022/09/06 02:44:40;;;;;;;4.03;2.25;;;20.30;99.90;;;-144.05;45.90;125687.94;5011275;28;20026;-88
2022/09/06 02:47:06;;;;;;;3.42;2.20;;;20.30;99.90;;;-144.05;46.45;125687.94;5011748;28;20030;-87
2022/09/06 02:49:32;;;;;;;6.47;2.60;;;20.20;99.90;;;-144.05;47.21;125687.94;5011530;28;20033;-88
2022/09/06 02:51:58;;;;;;;5.55;2.25;;;20.20;99.90;;;-144.05;47.37;125687.94;5011493;28;20128;-86
2022/09/06 02:54:24;;;;;;;8.02;2.80;;;20.10;99.90;;;-144.05;47.07;125687.94;5011715;28;20042;-87
2022/09/06 02:56:50;;;;;;;7.15;2.42;;;20.10;99.90;;;-144.05;47.36;125687.94;5012767;28;20121;-84
2022/09/06 02:59:16;;;;;;;4.20;2.65;;;20.10;99.90;;;-144.05;47.93;125687.94;5011526;28;20026;-85
2022/09/06 03:01:42;;;;;;;3.08;2.22;;;20.00;99.90;;;-144.05;48.45;125687.94;5011478;28;20030;-86
2022/09/06 03:04:07;;;;;;;9.35;2.72;;;20.00;99.90;;;-144.05;48.75;125687.94;5011703;28;20029;-85
2022/09/06 03:06:34;;;;;;;8.18;3.05;;;20.00;99.90;;;-144.05;48.64;125687.94;5011563;28;20125;-83
2022/09/06 03:09:00;;;;;;;8.02;3.28;;;20.00;99.90;;;-144.05;48.70;125687.94;5012671;28;20513;-86
2022/09/06 03:11:27;;;;;;;8.60;2.97;;;20.00;99.90;;;-144.05;48.84;125687.94;5011821;28;20030;-86
2022/09/06 03:13:53;;;;;;;7.40;3.08;;;19.90;99.90;;;-144.05;49.31;125687.94;5011334;28;20060;-86
2022/09/06 03:16:19;;;;;;;4.82;3.05;;;19.90;99.90;;;-144.05;49.31;125687.94;5011635;28;20038;-86
2022/09/06 03:18:45;;;;;;;6.47;2.80;;;19.90;99.90;;;-144.05;49.58;125687.94;5020298;28;20090;-80
2022/09/06 03:21:12;;;;;;;8.95;2.97;;;19.90;99.90;;;-144.05;50.02;125687.94;5035583;28;20018;-82
2022/09/06 03:23:38;;;;;;;9.20;3.25;;;19.80;99.90;;;-144.05;50.61;125687.94;5035558;28;20064;-81
2022/09/06 03:26:06;;;;;;;6.68;3.60;;;19.80;99.90;;;-144.05;50.60;125687.94;5036081;28;20030;-80
2022/09/06 03:28:33;;;;;;;7.07;3.05;;;19.80;99.90;;;-144.05;50.58;125687.94;5035351;28;20045;-81
2022/09/06 03:30:59;;;;;;;6.55;3.30;;;19.70;99.90;;;-144.05;50.88;125687.94;5035644;28;20045;-81
2022/09/06 03:33:25;;;;;;;6.57;3.03;;;19.70;99.90;;;-144.05;51.17;125687.94;5014003;28;20048;-87
2022/09/06 03:35:59;;;;;;;5.68;2.72;;;19.70;99.90;;;-144.05;51.15;125687.94;5011241;28;20038;-86
2022/09/06 03:38:27;;;;;;;5.82;2.85;;;19.70;99.90;;;-144.05;51.32;125687.94;5014221;28;20029;-87
2022/09/06 03:40:54;;;;;;;9.25;3.33;;;19.70;99.90;;;-144.05;51.58;125687.94;5012609;28;20033;-87
2022/09/06 03:43:24;;;;;;;8.27;3.67;;;19.60;99.90;;;-144.05;52.27;125687.94;5032375;28;20026;-80
2022/09/06 03:45:55;;;;;;;5.55;3.38;;;19.60;99.90;;;-144.05;52.23;125687.94;5028506;28;20038;-84
2022/09/06 03:48:26;;;;;;;6.43;2.80;;;19.60;99.90;;;-144.05;52.12;125687.94;5011826;28;20057;-86
2022/09/06 03:50:56;;;;;;;7.97;2.80;;;19.60;99.90;;;-144.05;52.47;125687.94;5011470;28;20030;-86
2022/09/06 03:53:26;;;;;;;7.72;2.67;;;19.50;99.90;;;-144.05;52.73;125687.94;5013249;28;20025;-85
2022/09/06 03:55:59;;;;;;;8.30;3.33;;;19.50;99.90;;;-144.05;53.25;125687.94;5015092;28;20367;-85
2022/09/06 03:58:31;;;;;;;7.13;3.50;;;19.40;99.90;;;-144.05;54.27;125687.94;5014993;28;20030;-87
2022/09/06 04:01:15;;;;;;;15.05;3.65;;;19.40;99.90;;;-144.05;54.78;125687.94;5015663;28;20026;-85
2022/09/06 04:03:41;;;;;;;8.75;3.65;;;19.30;99.90;;;-144.05;54.70;125687.94;5015823;28;20022;-87
2022/09/06 04:06:08;;;;;;;6.65;3.83;;;19.30;99.90;;;-144.05;54.79;125687.94;5014738;28;20120;-86
2022/09/06 04:08:38;;;;;;;10.43;4.05;;;19.30;99.90;;;-144.05;54.65;125687.94;5015124;28;20116;-87
2022/09/06 04:11:05;;;;;;;9.30;4.03;;;19.40;99.90;;;-144.05;54.44;125687.94;5016397;28;20156;-86
2022/09/06 04:13:33;;;;;;;6.10;3.35;;;19.40;99.90;;;-144.05;54.36;125687.94;5031072;28;20034;-88
2022/09/06 04:16:16;;;;;;;5.70;3.70;;;19.50;99.90;;;-144.05;54.20;125687.94;5017685;28;20049;-89
2022/09/06 04:18:42;;;;;;;7.88;4.10;;;19.60;99.90;;;-144.05;54.36;125687.94;5019226;28;20026;-86
2022/09/06 04:21:08;;;;;;;8.63;3.80;;;19.60;99.90;;;-144.05;54.08;125687.94;5016515;28;20026;-85
2022/09/06 04:23:34;;;;;;;7.18;3.30;;;19.70;99.90;;;-144.05;53.15;125687.94;5017981;28;20026;-85
2022/09/06 04:26:05;;;;;;;5.60;2.97;;;19.70;99.90;;;-144.05;52.79;125687.94;5016100;28;20034;-84
2022/09/06 04:28:31;;;;;;;4.13;2.63;;;19.70;99.90;;;-144.05;52.49;125687.94;5015933;28;20034;-87
2022/09/06 04:31:10;;;;;;;7.88;2.70;;;19.70;99.90;;;-144.05;51.51;125687.94;5017346;28;20137;-90
2022/09/06 04:33:37;;;;;;;6.20;3.22;;;19.80;99.90;;;-144.05;51.32;125687.94;5032146;28;20490;-87
2022/09/06 04:36:09;;;;;;;9.38;3.08;;;19.70;99.90;;;-144.05;51.90;125687.94;5031285;28;20034;-88
2022/09/06 04:42:45;;;;;;;5.25;2.72;;;19.70;99.90;;;-144.05;52.01;125687.94;5008493;28;20097;-91
2022/09/06 04:45:13;;;;;;;9.18;2.85;;;19.60;99.90;;;-144.05;52.38;125687.94;5016124;28;20029;-90
2022/09/06 04:47:50;;;;;;;12.18;3.40;;;19.60;99.90;;;-144.05;53.06;125687.94;5019010;28;20034;-88
2022/09/06 04:50:19;;;;;;;7.30;3.17;;;19.50;99.90;;;-144.05;53.53;125687.94;5020418;28;20021;-87
2022/09/06 04:52:45;;;;;;;11.57;2.60;;;19.40;99.90;;;-144.05;53.22;125687.94;5014584;28;20038;-89
2022/09/06 04:55:24;;;;;;;;;;;;;;;;;;;;;
2022/09/06 04:57:53;;;;;;;6.90;3.03;;;19.40;99.90;;;-144.05;53.57;125687.94;5019694;28;20108;-89
2022/09/06 05:00:43;;;;;;;;;;;;;;;;;;;;;
2022/09/06 05:03:09;;;;;;;7.90;2.38;;;19.40;99.90;;;-144.05;53.54;125687.94;5017628;28;20553;-85
2022/09/06 05:05:37;;;;;;;4.25;2.72;;;19.40;99.90;;;-144.05;54.17;125687.94;5012993;28;20045;-87
2022/09/06 05:08:03;;;;;;;4.18;2.20;;;19.30;99.90;;;-144.05;53.83;125687.94;5013910;28;20030;-86
2022/09/06 05:10:29;;;;;;;5.18;2.78;;;19.30;99.90;;;-144.05;54.15;125687.94;5013565;28;20040;-88
2022/09/06 05:12:55;;;;;;;5.78;2.38;;;19.30;99.90;;;-144.05;54.09;125687.94;5014986;28;20057;-86
2022/09/06 05:15:24;;;;;;;3.83;2.33;;;19.30;99.90;;;-144.05;54.41;125687.94;5013606;28;20466;-86
2022/09/06 05:17:50;;;;;;;3.38;2.28;;;19.30;99.90;;;-144.05;54.29;125687.94;5013389;28;20033;-87
2022/09/06 05:20:17;;;;;;;5.85;2.50;;;19.30;99.90;;;-144.05;54.87;125687.94;5014446;28;20045;-85
2022/09/06 05:22:54;;;;;;;3.45;2.33;;;19.30;99.90;;;-144.05;55.02;125687.94;5014292;28;20033;-87
2022/09/06 05:25:21;;;;;;;6.78;2.50;;;19.20;99.90;;;-144.05;55.23;125687.94;5014170;28;20092;-88
2022/09/06 05:27:47;;;;;;;7.57;3.15;;;19.20;99.90;;;-144.05;55.16;125687.94;5014514;28;20037;-84
2022/09/06 05:30:16;;;;;;;10.50;3.88;;;19.20;99.90;;;-144.05;55.07;125687.94;5015750;28;20180;-87
2022/09/06 05:32:42;;;;;;;5.30;2.95;;;19.20;99.90;;;-144.05;54.86;125687.94;5016146;28;20136;-84
2022/09/06 05:35:08;;;;;;;6.70;3.05;;;19.20;99.90;;;-144.05;54.77;125687.94;5016006;28;20061;-85
2022/09/06 05:37:35;;;;;;;5.97;2.67;;;19.30;99.90;;;-144.05;55.14;125687.94;5017287;28;20050;-86
2022/09/06 05:40:02;;;;;;;4.93;2.45;;;19.30;99.90;;;-144.05;55.37;125687.94;5015134;28;20030;-87
2022/09/06 05:42:28;;;;;;;5.80;2.50;;;19.20;99.90;;;-144.05;56.16;125687.94;5016169;28;20093;-84
2022/09/06 05:44:54;;;;;;;6.25;2.78;;;19.20;99.90;;;-144.05;56.81;125687.94;5015993;28;20050;-88
2022/09/06 05:47:20;;;;;;;6.15;2.72;;;19.10;99.90;;;-144.05;57.37;125687.94;5016246;28;20034;-90
2022/09/06 05:49:46;;;;;;;5.80;2.80;;;19.10;99.90;;;-144.05;57.70;125687.94;5035079;28;20053;-81
2022/09/06 05:52:12;;;;;;;6.95;2.55;;;19.00;99.90;;;-144.05;57.94;125687.94;5026279;28;20197;-88
2022/09/06 05:54:38;;;;;;;4.38;2.30;;;19.00;99.90;;;-144.05;57.89;125687.94;5015656;28;20057;-87
2022/09/06 05:57:04;;;;;;;7.40;3.08;;;19.00;99.90;;;-144.05;58.65;125687.94;5015208;28;20048;-87
2022/09/06 05:59:30;;;;;;;4.35;2.40;;;19.00;99.90;;;-144.05;58.90;125687.94;5015673;28;20033;-86
2022/09/06 06:01:56;;;;;;;6.13;2.63;;;19.00;99.90;;;-144.05;58.79;125687.94;5016079;28;20037;-89
2022/09/06 06:04:22;;;;;;;5.30;2.58;;;19.00;99.90;;;-144.05;58.21;125687.94;5015225;28;20113;-88
2022/09/06 06:06:48;;;;;;;5.15;2.70;;;19.10;99.90;;;-144.05;57.53;125687.94;5015724;28;20045;-89
2022/09/06 06:09:15;;;;;;;3.50;2.38;;;19.20;99.90;;;-144.05;57.13;125687.94;5015776;28;20065;-87
2022/09/06 06:11:43;;;;;;;7.90;2.72;;;19.30;99.90;;;-144.05;56.54;125687.94;5015979;28;20037;-84
2022/09/06 06:14:10;;;;;;;7.20;2.38;;;19.40;99.90;;;-144.05;55.77;125687.94;5015904;28;20107;-87
2022/09/06 06:16:36;;;;;;;7.57;2.75;;;19.60;99.90;;;-144.05;54.90;125687.94;5031407;28;20030;-87
2022/09/06 06:19:02;;;;;;;5.32;2.85;;;19.80;99.90;;;-144.05;53.82;125687.94;5016161;28;20073;-87
2022/09/06 06:21:32;;;;;;;7.45;2.88;;;20.10;99.90;;;-144.05;52.15;125687.94;5032345;28;20030;-88
2022/09/06 06:24:04;;;;;;;8.55;3.17;;;20.70;99.90;;;-144.05;49.98;125687.94;5017503;28;20492;-88
2022/09/06 06:26:56;;;;;;;8.40;2.75;;;21.20;99.90;;;-144.05;48.30;125687.94;5033704;28;20030;-88
2022/09/06 06:29:41;;;;;;;6.65;2.47;;;21.60;99.90;;;-144.05;46.86;125687.94;5018458;28;20038;-89
2022/09/06 06:32:13;;;;;;;7.63;2.85;;;22.00;99.90;;;-144.05;45.89;125687.94;5016374;28;20064;-88
2022/09/06 06:35:16;;;;;;;;;;;;;;;;;;;;;
2022/09/06 06:37:44;;;;;;;5.63;3.00;;;22.70;99.90;;;-144.05;44.57;125687.94;5017983;28;20121;-87
2022/09/06 06:40:10;;;;;;;5.63;2.20;;;22.90;99.90;;;-144.05;44.72;125687.94;5016261;28;20034;-88
2022/09/06 06:42:44;;;;;;;7.13;2.58;;;23.10;99.90;;;-144.05;44.59;125687.94;5016119;28;20037;-89
2022/09/06 06:45:10;;;;;;;7.07;2.20;;;23.20;99.90;;;-144.05;44.82;125687.94;5016052;28;20081;-86
2022/09/06 06:47:36;;;;;;;9.15;2.00;;;23.30;99.90;;;-144.05;44.79;125687.94;5015316;28;20080;-85
2022/09/06 06:50:05;;;;;;;9.80;2.65;;;23.40;99.90;;;-144.05;45.29;125687.94;5031723;28;20049;-88
2022/09/06 06:52:38;;;;;;;4.38;2.28;;;23.40;99.90;;;-144.05;45.58;125687.94;5013387;28;20172;-89
2022/09/06 06:55:05;;;;;;;4.70;2.75;;;23.40;99.90;;;-144.05;45.14;125687.94;5032376;28;20036;-85
2022/09/06 06:57:36;;;;;;;4.90;2.22;;;23.50;99.90;;;-144.05;44.55;125687.94;5014751;28;20045;-88
2022/09/06 07:00:12;;;;;;;5.72;2.35;;;23.60;99.90;;;-144.05;44.22;125687.94;5014784;28;20137;-88
2022/09/06 07:02:38;;;;;;;7.35;2.78;;;23.70;99.90;;;-144.05;43.54;125687.94;5016326;28;20034;-85
2022/09/06 07:05:05;;;;;;;2.50;2.00;;;23.80;99.90;;;-144.05;43.54;125687.94;5017214;28;20030;-88
2022/09/06 07:07:33;;;;;;;4.65;2.50;;;23.90;99.90;;;-144.05;42.55;125687.94;5014836;28;20037;-88
2022/09/06 07:10:16;;;;;;;7.00;2.15;;;24.10;99.90;;;-144.05;42.34;125687.94;5016119;28;20445;-88
2022/09/06 07:12:45;;;;;;;5.55;2.28;;;24.20;99.90;;;-144.05;42.31;125687.94;5015964;28;20075;-88
2022/09/06 07:15:11;;;;;;;3.53;1.92;;;24.40;99.90;;;-144.05;41.51;125687.94;5016440;28;20083;-86
2022/09/06 07:17:39;;;;;;;5.65;2.10;;;24.50;99.90;;;-144.05;41.41;125687.94;5017696;28;20081;-88
2022/09/06 07:20:08;;;;;;;6.95;2.20;;;24.70;99.90;;;-144.05;40.98;125687.94;5017478;28;20090;-87
2022/09/06 07:22:36;;;;;;;5.15;2.00;;;24.90;99.90;;;-144.05;40.12;125687.94;5016723;28;20029;-88
2022/09/06 07:25:15;;;;;;;4.20;2.20;;;25.00;99.90;;;-144.05;39.94;125687.94;5016538;28;20080;-86
2022/09/06 07:27:44;;;;;;;4.55;1.80;;;25.20;99.90;;;-144.05;39.55;125687.94;5018219;28;20501;-87
2022/09/06 07:30:12;;;;;;;8.68;1.98;;;25.30;99.90;;;-144.05;39.46;125687.94;5019715;28;20045;-87
2022/09/06 07:32:38;;;;;;;5.32;2.00;;;25.60;99.90;;;-144.05;38.83;125687.94;5021340;28;20128;-89
2022/09/06 07:35:06;;;;;;;4.15;1.83;;;26.00;99.90;;;-144.05;38.77;125687.94;5021510;28;20030;-87
2022/09/06 07:37:31;;;;;;;5.93;2.05;;;26.20;99.90;;;-144.05;38.29;125687.94;5038697;28;20038;-85
2022/09/06 07:39:57;;;;;;;6.20;1.88;;;26.50;99.90;;;-144.05;37.34;125687.94;5021798;28;20045;-85
2022/09/06 07:42:24;;;;;;;3.90;1.88;;;26.70;99.90;;;-144.05;37.31;125687.94;5020421;28;20021;-86
2022/09/06 07:44:50;;;;;;;4.63;1.70;;;26.80;99.90;;;-144.05;36.98;125687.94;5019948;28;20050;-88
2022/09/06 07:47:16;;;;;;;4.95;1.58;;;27.00;99.90;;;-144.05;36.76;125687.94;5019463;28;20066;-88
2022/09/06 07:49:45;;;;;;;4.30;1.58;;;27.30;99.90;;;-144.05;35.16;125687.94;5019908;28;20065;-89
2022/09/06 07:52:11;;;;;;;2.58;1.23;;;27.30;99.90;;;-144.05;35.02;125687.94;5022430;28;20572;-86
2022/09/06 07:54:37;;;;;;;4.15;1.70;;;27.40;99.90;;;-144.05;34.73;125687.94;5039956;28;20018;-80
2022/09/06 07:57:03;;;;;;;4.82;1.52;;;27.40;99.90;;;-144.05;34.67;125687.94;5027151;28;20049;-90
2022/09/06 07:59:31;;;;;;;4.00;1.80;;;27.40;99.90;;;-144.05;34.96;125687.94;5018515;28;20021;-87
2022/09/06 08:01:59;;;;;;;6.80;1.85;;;27.40;99.90;;;-144.05;34.42;125687.94;5019019;28;20033;-87
2022/09/06 08:04:25;;;;;;;2.63;1.40;;;27.50;99.40;;;-144.05;33.80;125687.94;5020171;28;20038;-88
2022/09/06 08:06:52;;;;;;;2.63;1.55;;;27.70;98.30;;;-144.05;33.49;125687.94;5020516;28;20030;-86
2022/09/06 08:09:18;;;;;;;4.75;1.20;;;27.90;97.60;;;-144.05;33.30;125687.94;5019375;28;20060;-88
2022/09/06 08:11:49;;;;;;;7.43;1.73;;;28.10;97.20;;;-144.05;33.23;125687.94;5018429;28;20389;-89
2022/09/06 08:14:15;;;;;;;3.15;1.20;;;28.00;96.30;;;-144.05;33.24;125687.94;5015602;28;20040;-89
2022/09/06 08:16:41;;;;;;;2.25;1.23;;;28.10;96.20;;;-144.05;32.79;125687.94;5016225;28;20038;-87
2022/09/06 08:19:07;;;;;;;3.97;1.50;;;28.30;95.70;;;-144.05;32.70;125687.94;5016263;28;20026;-88
2022/09/06 08:21:34;;;;;;;2.83;1.15;;;28.60;95.60;;;-144.05;33.06;125687.94;5015857;28;20104;-87
2022/09/06 08:24:08;;;;;;;3.60;1.52;;;28.70;95.90;;;-144.05;32.99;125687.94;4999582;28;20057;-87
2022/09/06 08:26:39;;;;;;;3.55;1.55;;;29.00;95.50;;;-144.05;31.87;125687.94;5016713;28;20034;-88
2022/09/06 08:29:07;;;;;;;4.57;1.20;;;29.30;94.00;;;-144.05;31.79;125687.94;4999979;28;20030;-86
2022/09/06 08:31:46;;;;;;;3.55;1.25;;;29.30;93.40;;;-144.05;31.28;125687.94;5001395;28;20037;-87
2022/09/06 08:34:13;;;;;;;4.68;1.58;;;29.40;92.00;;;-144.05;31.70;125687.94;5017009;28;20054;-89
2022/09/06 08:36:40;;;;;;;2.67;1.45;;;29.40;92.30;;;-144.05;32.21;125687.94;5015630;28;20045;-87
2022/09/06 08:39:09;;;;;;;3.15;1.00;;;29.40;92.20;;;-144.05;31.99;125687.94;4998782;28;20027;-87
2022/09/06 08:42:04;;;;;;;2.72;1.10;;;29.40;91.60;;;-144.05;31.99;125687.94;5014648;28;20474;-88
2022/09/06 08:44:56;;;;;;;4.15;1.10;;;29.30;91.20;;;-144.05;32.17;125687.94;5014953;28;20038;-89
2022/09/06 08:47:23;;;;;;;2.10;1.17;;;29.10;91.20;;;-144.05;31.72;125687.94;5016223;28;20026;-90
2022/09/06 08:50:04;;;;;;;3.92;1.38;;;29.00;90.90;;;-144.05;31.81;125687.94;5001112;28;20412;-88
2022/09/06 08:53:11;;;;;;;4.80;1.30;;;29.10;91.10;;;-144.05;31.19;125687.94;4998585;28;20042;-87
2022/09/06 08:56:19;;;;;;;3.63;1.20;;;29.50;90.20;;;-144.05;30.41;125687.94;5010330;28;20069;-88
2022/09/06 08:59:16;;;;;;;0.82;0.82;;;29.80;89.80;;;-144.05;30.47;125687.94;4999538;28;20037;-87
2022/09/06 09:02:19;;;;;;;1.55;0.90;;;29.90;87.50;;;-144.05;30.19;125687.94;4989473;28;20107;-86
2022/09/06 09:04:59;;;;;;;1.50;1.02;;;30.10;85.90;;;-144.05;30.61;125687.94;5018603;28;20057;-91
2022/09/06 09:07:49;;;;;;;2.28;1.10;;;30.20;86.80;;;-144.05;30.33;125687.94;5005234;28;20030;-89
2022/09/06 09:10:43;;;;;;;3.53;1.20;;;30.90;85.50;;;-144.05;29.83;125687.94;5016713;28;20045;-88
2022/09/06 09:13:33;;;;;;;2.65;1.20;;;30.30;83.50;;;-144.05;30.16;125687.94;5017412;28;20034;-88
2022/09/06 09:16:01;;;;;;;4.53;1.27;;;30.30;83.60;;;-144.05;29.91;125687.94;5019275;28;20037;-87
2022/09/06 09:18:39;;;;;;;1.88;0.90;;;30.60;83.30;;;-144.05;29.80;125687.94;5018165;28;20076;-86
2022/09/06 09:21:08;;;;;;;2.03;1.10;;;30.50;82.30;;;-144.05;29.63;125687.94;5019307;28;20478;-87
2022/09/06 09:23:35;;;;;;;2.05;0.80;;;30.40;80.40;;;-144.05;29.93;125687.94;5018755;28;20022;-89
2022/09/06 09:26:13;;;;;;;3.58;0.80;;;30.50;82.00;;;-144.05;29.73;125687.94;5019148;28;20468;-92
2022/09/06 09:29:13;;;;;;;1.30;0.75;;;30.40;80.30;;;-144.05;29.59;125687.94;5018146;28;20038;-87
2022/09/06 09:31:48;;;;;;;1.45;0.70;;;30.60;80.10;;;-144.05;29.13;125687.94;5019157;28;20033;-88
2022/09/06 09:34:39;;;;;;;1.45;0.70;;;30.90;79.50;;;-144.05;28.82;125687.94;5018215;28;20037;-89
2022/09/06 09:37:22;;;;;;;0.95;0.70;;;31.00;77.00;;;-144.05;29.34;125687.94;5021769;28;20041;-85
2022/09/06 09:39:55;;;;;;;2.85;0.60;;;31.10;78.30;;;-144.05;28.62;125687.94;5023816;28;20509;-90
2022/09/06 09:42:34;;;;;;;3.42;0.77;;;31.10;76.20;;;-144.05;28.76;125687.94;5022410;28;20033;-88
2022/09/06 09:45:24;;;;;;;1.85;0.55;;;30.90;76.80;;;-144.05;29.08;125687.94;5037911;28;20073;-89
2022/09/06 09:47:51;;;;;;;2.33;0.75;;;30.80;76.20;;;-144.05;29.67;125687.94;5021960;28;20048;-87
2022/09/06 09:50:33;;;;;;;2.05;0.90;;;31.00;78.20;;;-144.05;28.51;125687.94;5021503;28;20030;-89
2022/09/06 09:53:14;;;;;;;2.38;0.70;;;31.10;74.90;;;-144.05;28.47;125687.94;5022435;28;20587;-85
2022/09/06 09:55:43;;;;;;;1.20;0.75;;;31.30;75.20;;;-144.05;28.57;125687.94;5026979;28;20089;-79
2022/09/06 09:58:35;;;;;;;1.65;0.80;;;31.60;75.00;;;-144.05;28.59;125687.94;5036649;28;20030;-78
2022/09/06 10:01:32;;;;;;;2.22;1.00;;;31.50;74.70;;;-144.05;28.28;125687.94;5018513;28;20038;-88
2022/09/06 10:04:21;;;;;;;1.50;0.82;;;31.40;73.40;;;-144.05;28.68;125687.94;5017924;28;20044;-88
2022/09/06 10:06:47;;;;;;;1.83;0.90;;;31.30;74.60;;;-144.05;28.92;125687.94;5018883;28;20032;-88
2022/09/06 10:09:37;;;;;;;3.17;0.80;;;31.00;71.90;;;-144.05;28.57;125687.94;5019603;28;20056;-88
2022/09/06 10:12:04;;;;;;;1.10;0.70;;;31.10;72.10;;;-144.05;28.21;125687.94;5019366;28;20057;-88
2022/09/06 10:14:48;;;;;;;1.17;0.63;;;31.10;70.30;;;-144.05;28.28;125687.94;5015393;28;20033;-87
2022/09/06 10:17:36;;;;;;;1.95;0.80;;;31.20;71.80;;;-144.05;28.14;125687.94;5014256;28;20438;-86
2022/09/06 10:20:11;;;;;;;1.83;0.63;;;31.30;71.50;;;-144.05;27.89;125687.94;4997345;28;20089;-87
2022/09/06 10:23:15;;;;;;;2.22;0.80;;;31.40;70.60;;;-144.05;27.93;125687.94;4997108;28;20022;-87
2022/09/06 10:26:34;;;;;;;1.65;1.00;;;31.10;69.10;;;-144.05;27.78;125687.94;4996950;28;20038;-86
2022/09/06 10:29:11;;;;;;;4.30;1.00;;;31.40;69.80;;;-144.05;28.27;125687.94;4996974;28;20034;-86
2022/09/06 10:31:54;;;;;;;1.40;0.80;;;31.50;71.50;;;-144.05;27.55;125687.94;5014268;28;20482;-87
2022/09/06 10:35:00;;;;;;;1.25;0.70;;;31.60;69.00;;;-144.05;27.98;125687.94;5014589;28;20046;-87
2022/09/06 10:37:43;;;;;;;2.63;0.90;;;31.50;71.30;;;-144.05;27.60;125687.94;4997689;28;20057;-88
2022/09/06 10:40:34;;;;;;;1.40;0.82;;;31.50;68.30;;;-144.05;27.69;125687.94;4997115;28;20035;-85